North Potrero (448) Station Data

Red Flag Warning: No
Fire Weather Zone: 250
SDGE Region: Mountain Empire
Lat/Lon: 32.63/-116.585

Observations

Time Wind Speed/Gust Temp(F) RH Fuel Moist Fuel Temp(F) Dewpt(F) Tmax(F) Tmin(F) Accum Precip 10-min Precip SL Press(mb)
4/26 2:40am 27 3 G 4 49° 91% - - 47° 51.8° 46.9° - - -
4/26 2:30am 73 1 G 2 49° 98% - - 48° 51.8° 46.9° - - -
4/26 2:20am 116 1 G 3 48° 99% - - 48° 51.8° 46.9° - - -
4/26 2:10am 338 3 G 3 50° 93% - - 48° 51.8° 46.9° - - -
4/26 2:00am 69 2 G 3 49° 99% - - 48° 51.8° 46.9° - - -
4/26 1:50am 125 2 G 4 48° 100% - - 48° 51.8° 46.9° - - -
4/26 1:40am 356 2 G 4 49° 97% - - 48° 51.8° 47.5° - - -
4/26 1:30am 6 2 G 3 49° 99% - - 48° 51.8° 47.5° - - -
4/26 1:20am 16 2 G 3 49° 99% - - 48° 51.8° 47.5° - - -
4/26 1:10am 135 1 G 2 48° 100% - - 48° 51.8° 47.5° - - -
4/26 1:00am 290 1 G 3 49° 97% - - 48° 51.8° 47.8° - - -
4/26 12:50am 4 4 G 5 49° 97% - - 48° 51.8° 48.4° - - -
4/26 12:40am 2 4 G 5 50° 91% - - 48° 51.8° 48.6° - - -
4/26 12:30am 65 2 G 3 51° 90% - - 48° 51.8° 48.6° - - -
4/26 12:20am 116 3 G 3 50° 96% - - 49° 50.7° 48.6° - - -
4/26 12:10am 97 1 G 3 49° 97% - - 48° 49.6° 48.6° - - -
4/26 12:00am 336 1 G 2 48° 100% - - 48° 63.7° 47.5° - - -
4/25 11:50pm 327 3 G 4 48° 97% - - 48° 63.7° 47.7° - - -
4/25 11:40pm 15 3 G 4 51° 86% - - 47° 63.7° 49.1° - - -
4/25 11:30pm 32 4 G 5 51° 85% - - 47° 63.7° 49.1° - - -
4/25 11:20pm 33 4 G 6 51° 86% - - 47° 63.7° 49.1° - - -
4/25 11:10pm 50 3 G 5 51° 88% - - 47° 63.7° 49.1° - - -
4/25 11:00pm 37 3 G 4 50° 90% - - 48° 63.7° 49.1° - - -
4/25 10:50pm 16 3 G 4 50° 90% - - 48° 63.7° 49.1° - - -
4/25 10:40pm 17 3 G 3 50° 92% - - 48° 63.7° 49.1° - - -
4/25 10:30pm 16 2 G 3 50° 91% - - 48° 63.7° 49.1° - - -
4/25 10:20pm 30 2 G 3 50° 91% - - 48° 63.7° 49.1° - - -
4/25 10:10pm 327 1 G 2 50° 90% - - 48° 63.7° 49.1° - - -
4/25 10:00pm 321 2 G 2 51° 87% - - 47° 63.7° 49.1° - - -
4/25 9:50pm 336 2 G 3 51° 86% - - 47° 63.7° 49.1° - - -
4/25 9:40pm 356 2 G 2 51° 86% - - 47° 63.7° 49.1° - - -
4/25 9:30pm 8 3 G 4 51° 87% - - 47° 63.7° 49.1° - - -
4/25 9:20pm 335 4 G 5 52° 84% - - 47° 63.7° 49.1° - - -
4/25 9:10pm 301 4 G 5 52° 84% - - 47° 63.7° 49.1° - - -
4/25 9:00pm 284 4 G 5 52° 85% - - 48° 63.7° 49.1° - - -
4/25 8:50pm 283 5 G 6 52° 86% - - 48° 63.7° 49.1° - - -
4/25 8:40pm 275 3 G 5 52° 88% - - 49° 63.7° 49.1° - - -
4/25 8:30pm 245 3 G 5 53° 90% - - 50° 63.7° 49.1° - - -
4/25 8:20pm 237 3 G 5 53° 88% - - 50° 63.7° 49.1° - - -
4/25 8:10pm 233 2 G 4 54° 87% - - 50° 63.7° 49.1° - - -
4/25 8:00pm 268 2 G 4 54° 86% - - 50° 63.7° 49.1° - - -
4/25 7:50pm 245 3 G 5 55° 85% - - 50° 63.7° 49.1° - - -
4/25 7:40pm 239 5 G 7 55° 85% - - 50° 63.7° 49.1° - - -
4/25 7:30pm 253 5 G 8 55° 87% - - 51° 63.7° 49.1° - - -
4/25 7:20pm 239 6 G 8 55° 88% - - 52° 63.7° 49.1° - - -
4/25 7:10pm 241 6 G 10 55° 89% - - 52° 63.7° 49.1° - - -
4/25 7:00pm 238 7 G 10 55° 90% - - 52° 63.7° 49.1° - - -
4/25 6:50pm 234 7 G 11 55° 90% - - 52° 63.7° 49.1° - - -
4/25 6:40pm 236 8 G 11 55° 89% - - 52° 63.7° 49.1° - - -
4/25 6:30pm 235 8 G 13 56° 87% - - 52° 63.7° 49.1° - - -
4/25 6:20pm 234 7 G 10 56° 86% - - 52° 63.7° 49.1° - - -
4/25 6:10pm 236 8 G 12 56° 84% - - 51° 63.7° 49.1° - - -
4/25 6:00pm 230 9 G 14 56° 82% - - 51° 63.7° 49.1° - - -
4/25 5:50pm 233 9 G 13 57° 80% - - 51° 63.7° 49.1° - - -
4/25 5:40pm 238 8 G 12 57° 78% - - 51° 63.7° 49.1° - - -
4/25 5:30pm 233 9 G 13 57° 79% - - 50° 63.7° 49.1° - - -
4/25 5:20pm 233 10 G 14 57° 77% - - 50° 63.7° 49.1° - - -
4/25 5:10pm 229 10 G 15 58° 75% - - 50° 63.7° 49.1° - - -
4/25 5:00pm 249 9 G 15 59° 72% - - 50° 63.7° 49.1° - - -
4/25 4:50pm 247 11 G 16 58° 71% - - 49° 63.7° 49.1° - - -
4/25 4:40pm 265 8 G 13 59° 69% - - 49° 63.7° 49.1° - - -
4/25 4:30pm 279 10 G 15 59° 67% - - 49° 63.7° 49.1° - - -
4/25 4:20pm 281 9 G 15 61° 64% - - 49° 63.7° 49.1° - - -
4/25 4:10pm 268 8 G 13 60° 66% - - 49° 63.7° 49.1° - - -
4/25 4:00pm 244 10 G 14 60° 68% - - 49° 63.7° 49.1° - - -
4/25 3:50pm 244 10 G 15 60° 66% - - 49° 63.7° 49.1° - - -
4/25 3:40pm 235 9 G 14 60° 66% - - 49° 63.7° 49.1° - - -
4/25 3:30pm 247 8 G 13 61° 65% - - 49° 63.7° 49.1° - - -
4/25 3:20pm 235 9 G 14 61° 66% - - 49° 63.7° 49.1° - - -
4/25 3:10pm 214 10 G 14 61° 67% - - 50° 63.7° 49.1° - - -
4/25 3:00pm 225 9 G 14 60° 67% - - 49° 63.7° 49.1° - - -
4/25 2:50pm 258 9 G 16 61° 63% - - 49° 63.7° 49.1° - - -
4/25 2:40pm 266 9 G 14 61° 63% - - 49° 63.7° 49.1° - - -
4/25 2:30pm 224 10 G 17 61° 66% - - 49° 63.7° 49.1° - - -
4/25 2:20pm 238 10 G 15 61° 65% - - 49° 63.7° 49.1° - - -
4/25 2:10pm 243 10 G 16 61° 64% - - 49° 63.7° 49.1° - - -
4/25 2:00pm 237 9 G 17 62° 63% - - 49° 63.7° 49.1° - - -
4/25 1:50pm 234 10 G 17 61° 63% - - 48° 63.7° 49.1° - - -
4/25 1:40pm 227 11 G 17 62° 61% - - 48° 63.7° 49.1° - - -
4/25 1:30pm 241 10 G 17 62° 59% - - 47° 63.7° 49.1° - - -
4/25 1:20pm 232 11 G 19 62° 59% - - 47° 63.7° 49.1° - - -
4/25 1:10pm 241 11 G 18 62° 57% - - 47° 63.7° 49.1° - - -
4/25 1:00pm 255 8 G 15 62° 55% - - 46° 63.2° 49.1° - - -
4/25 12:50pm 251 9 G 17 62° 56% - - 46° 62.9° 49.1° - - -
4/25 12:40pm 246 8 G 18 62° 56% - - 46° 62.7° 49.1° - - -
4/25 12:30pm 237 10 G 17 61° 57% - - 46° 61.7° 49.1° - - -
4/25 12:20pm 224 11 G 16 61° 58% - - 46° 61.7° 49.1° - - -
4/25 12:10pm 237 9 G 16 61° 57% - - 45° 61.7° 49.1° - - -
4/25 12:00pm 256 10 G 18 61° 57% - - 45° 61.7° 49.1° - - -
4/25 11:50am 251 9 G 18 60° 59% - - 46° 61.1° 49.1° - - -
4/25 11:40am 245 8 G 15 60° 58% - - 45° 60.6° 49.1° - - -
4/25 11:30am 238 9 G 15 59° 61% - - 46° 60.4° 49.1° - - -
4/25 11:20am 268 7 G 14 59° 61% - - 45° 60° 49.1° - - -
4/25 11:10am 242 9 G 15 59° 62% - - 46° 60° 49.1° - - -
4/25 11:00am 261 7 G 13 59° 63% - - 46° 59.5° 49.1° - - -
4/25 10:50am 219 9 G 15 58° 66% - - 47° 58.5° 49.1° - - -
4/25 10:40am 225 8 G 14 58° 69% - - 47° 58.5° 49.1° - - -
4/25 10:30am 245 9 G 16 57° 66% - - 46° 57.9° 49.1° - - -
4/25 10:20am 227 10 G 17 57° 71% - - 47° 57.5° 49.1° - - -
4/25 10:10am 223 9 G 15 56° 73% - - 48° 57.1° 49.1° - - -
4/25 10:00am 233 9 G 15 56° 77% - - 49° 56.8° 49.1° - - -
4/25 9:50am 230 11 G 17 56° 75% - - 48° 56.4° 49.1° - - -
4/25 9:40am 236 9 G 14 56° 74% - - 48° 56.2° 49.1° - - -
4/25 9:30am 234 9 G 13 55° 77% - - 48° 55.7° 49.1° - - -
4/25 9:20am 232 10 G 13 55° 77% - - 48° 55.7° 49.1° - - -
4/25 9:10am 231 9 G 15 55° 79% - - 48° 55.4° 49.1° - - -
4/25 9:00am 232 9 G 14 54° 82% - - 49° 54.7° 49.1° - - -
4/25 8:50am 228 9 G 14 54° 85% - - 49° 54.2° 49.1° - - -
4/25 8:40am 232 7 G 10 53° 95% - - 52° 53.5° 49.1° - - -
4/25 8:30am 206 8 G 11 52° 100% - - 52° 53° 49.1° - - -
4/25 8:20am 206 8 G 10 52° 100% - - 52° 52.4° 49.1° - - -
4/25 8:10am 203 8 G 12 51° 100% - - 51° 52.1° 49.1° - - -
4/25 8:00am 196 8 G 11 51° 100% - - 51° 52.1° 49.1° - - -
4/25 7:50am 197 9 G 11 51° 100% - - 51° 51.5° 49.1° - - -
4/25 7:40am 196 7 G 10 51° 100% - - 51° 51.2° 49.1° - - -
4/25 7:30am 192 7 G 11 50° 100% - - 50° 51° 49.1° - - -
4/25 7:20am 198 6 G 9 50° 100% - - 50° 50.7° 49.1° - - -
4/25 7:10am 193 6 G 9 50° 100% - - 50° 50.7° 49.1° - - -
4/25 7:00am 196 6 G 10 50° 100% - - 50° 50.7° 49.1° - - -
4/25 6:50am 196 7 G 9 50° 100% - - 50° 50.7° 49.1° - - -
4/25 6:40am 194 5 G 9 50° 100% - - 50° 50.7° 49.1° - - -
4/25 6:30am 189 5 G 7 50° 100% - - 50° 50.7° 49.1° - - -
4/25 6:20am 188 6 G 9 50° 100% - - 50° 50.7° 49.1° - - -
4/25 6:10am 195 6 G 8 50° 100% - - 50° 50.7° 49.1° - - -
4/25 6:00am 183 6 G 9 50° 100% - - 50° 50.7° 49.1° - - -
4/25 5:50am 186 5 G 8 50° 100% - - 50° 50.7° 49.1° - - -
4/25 5:40am 189 5 G 7 50° 100% - - 50° 50.7° 49.1° - - -
4/25 5:30am 182 6 G 8 50° 100% - - 50° 50.7° 49.1° - - -
4/25 5:20am 172 5 G 9 50° 100% - - 50° 50.7° 49.1° - - -
4/25 5:10am 170 6 G 8 50° 100% - - 50° 50.7° 49.1° - - -
4/25 5:00am 175 6 G 10 50° 100% - - 50° 50.7° 49.1° - - -
4/25 4:50am 181 5 G 9 50° 100% - - 50° 50.7° 49.1° - - -
4/25 4:40am 182 7 G 9 50° 100% - - 50° 50.7° 49.1° - - -
4/25 4:30am 187 6 G 8 50° 100% - - 50° 50.7° 49.1° - - -
4/25 4:20am 185 7 G 9 50° 100% - - 50° 50.7° 49.1° - - -
4/25 4:10am 180 5 G 8 50° 100% - - 50° 50.7° 49.1° - - -
4/25 4:00am 181 5 G 8 50° 100% - - 50° 50.7° 49.1° - - -
4/25 3:50am 166 6 G 10 50° 100% - - 50° 50.7° 49.1° - - -
4/25 3:40am 171 7 G 10 50° 100% - - 50° 50.7° 49.1° - - -
4/25 3:30am 181 7 G 11 49° 100% - - 49° 50.7° 49.1° - - -
4/25 3:20am 183 6 G 10 50° 100% - - 50° 50.7° 49.1° - - -
4/25 3:10am 176 8 G 10 49° 100% - - 49° 50.7° 49.1° - - -
4/25 3:00am 195 7 G 9 49° 100% - - 49° 50.7° 49.1° - - -
4/25 2:50am 195 6 G 9 50° 100% - - 50° 50.7° 49.3° - - -
4/25 2:40am 189 8 G 12 50° 100% - - 50° 50.7° 49.3° - - -
4/25 2:30am 189 8 G 11 50° 100% - - 50° 50.7° 49.3° - - -
4/25 2:20am 189 8 G 11 50° 100% - - 50° 50.7° 49.3° - - -
4/25 2:10am 174 6 G 9 50° 100% - - 50° 50.7° 49.3° - - -
4/25 2:00am 182 7 G 10 50° 100% - - 50° 50.7° 49.3° - - -
4/25 1:50am 175 8 G 11 50° 100% - - 50° 50.7° 49.3° - - -
4/25 1:40am 176 6 G 9 50° 100% - - 50° 50.7° 49.3° - - -
4/25 1:30am 173 7 G 10 50° 100% - - 50° 50.7° 49.3° - - -
4/25 1:20am 174 8 G 10 50° 100% - - 50° 50.7° 49.5° - - -
4/25 1:10am 170 6 G 9 50° 100% - - 50° 50.7° 49.6° - - -
4/25 1:00am 173 7 G 10 50° 100% - - 50° 50.7° 49.6° - - -
4/25 12:50am 173 7 G 11 50° 100% - - 50° 50.7° 49.6° - - -
4/25 12:40am 181 6 G 10 50° 100% - - 50° 50.7° 49.6° - - -
4/25 12:30am 169 9 G 12 50° 100% - - 50° 50.7° 49.6° - - -
4/25 12:20am 159 8 G 11 50° 100% - - 50° 50.7° 49.6° - - -
4/25 12:10am 173 6 G 9 50° 100% - - 50° 50.7° 49.8° - - -
4/25 12:00am 202 6 G 10 50° 100% - - 50° 66.9° 42.4° - - -
4/24 11:50pm 219 7 G 11 50° 100% - - 50° 66.9° 42.4° - - -
4/24 11:40pm 191 7 G 11 50° 100% - - 50° 66.9° 42.4° - - -
4/24 11:30pm 200 8 G 12 50° 100% - - 50° 66.9° 42.4° - - -
4/24 11:20pm 203 7 G 11 50° 100% - - 50° 66.9° 42.4° - - -
4/24 11:10pm 200 8 G 10 50° 100% - - 50° 66.9° 42.4° - - -
4/24 11:00pm 201 7 G 10 50° 100% - - 50° 66.9° 42.4° - - -
4/24 10:50pm 195 5 G 7 50° 100% - - 50° 66.9° 42.4° - - -
4/24 10:40pm 172 6 G 8 51° 100% - - 51° 66.9° 42.4° - - -
4/24 10:30pm 186 5 G 8 51° 100% - - 51° 66.9° 42.4° - - -
4/24 10:20pm 166 4 G 7 51° 100% - - 51° 66.9° 42.4° - - -
4/24 10:10pm 177 5 G 7 52° 100% - - 52° 66.9° 42.4° - - -
4/24 10:00pm 221 4 G 5 52° 100% - - 52° 66.9° 42.4° - - -
4/24 9:50pm 217 4 G 7 52° 100% - - 52° 66.9° 42.4° - - -
4/24 9:40pm 187 6 G 8 52° 100% - - 52° 66.9° 42.4° - - -
4/24 9:30pm 186 4 G 7 52° 100% - - 52° 66.9° 42.4° - - -
4/24 9:20pm 216 4 G 6 52° 100% - - 52° 66.9° 42.4° - - -
4/24 9:10pm 221 3 G 5 52° 100% - - 52° 66.9° 42.4° - - -
4/24 9:00pm 226 3 G 5 51° 100% - - 51° 66.9° 42.4° - - -
4/24 8:50pm 212 3 G 5 52° 100% - - 52° 66.9° 42.4° - - -
4/24 8:40pm 207 4 G 5 52° 100% - - 52° 66.9° 42.4° - - -
4/24 8:30pm 192 5 G 6 52° 100% - - 52° 66.9° 42.4° - - -
4/24 8:20pm 201 2 G 4 53° 100% - - 53° 66.9° 42.4° - - -
4/24 8:10pm 230 4 G 5 53° 100% - - 53° 66.9° 42.4° - - -
4/24 8:00pm 218 5 G 8 54° 100% - - 54° 66.9° 42.4° - - -
4/24 7:50pm 212 6 G 10 54° 100% - - 54° 66.9° 42.4° - - -
4/24 7:40pm 208 7 G 10 54° 100% - - 54° 66.9° 42.4° - - -
4/24 7:30pm 218 8 G 10 55° 98% - - 54° 66.9° 42.4° - - -
4/24 7:20pm 221 8 G 10 56° 95% - - 54° 66.9° 42.4° - - -
4/24 7:10pm 228 6 G 9 57° 87% - - 53° 66.9° 42.4° - - -
4/24 7:00pm 218 7 G 10 57° 83% - - 52° 66.9° 42.4° - - -
4/24 6:50pm 214 9 G 12 58° 83% - - 52° 66.9° 42.4° - - -
4/24 6:40pm 215 9 G 12 58° 82% - - 52° 66.9° 42.4° - - -
4/24 6:30pm 210 10 G 14 58° 77% - - 51° 66.9° 42.4° - - -
4/24 6:20pm 211 11 G 15 60° 71% - - 50° 66.9° 42.4° - - -
4/24 6:10pm 220 9 G 14 60° 67% - - 49° 66.9° 42.4° - - -
4/24 6:00pm 241 9 G 14 61° 62% - - 48° 66.9° 42.4° - - -